Time,TemperatureF,DewpointF,PressureIn,WindDirection,WindDirectionDegrees,WindSpeedMPH,WindSpeedGustMPH,Humidity,HourlyPrecipIn,Conditions,Clouds,dailyrainin,SoftwareType,DateUTC
2013-02-23 00:00:00,21.8,15.1,29.96,WSW,258,1.0,5.0,75,0.00,,,0.00,Wunderground v.1.15,2013-02-23 06:00:00,
2013-02-23 00:10:00,21.6,14.6,29.96,West,276,1.0,1.0,74,0.00,,,0.00,Wunderground v.1.15,2013-02-23 06:10:00,
2013-02-23 00:20:00,21.6,14.6,29.95,West,279,2.0,3.0,74,0.00,,,0.00,Wunderground v.1.15,2013-02-23 06:20:00,
2013-02-23 00:30:00,21.4,14.4,29.95,WNW,284,1.0,1.0,74,0.00,,,0.00,Wunderground v.1.15,2013-02-23 06:30:00,
2013-02-23 00:40:00,21.4,14.4,29.95,NW,307,1.0,1.0,74,0.00,,,0.00,Wunderground v.1.15,2013-02-23 06:40:00,
2013-02-23 00:50:00,21.3,14.3,29.95,WNW,292,1.0,1.0,74,0.00,,,0.00,Wunderground v.1.15,2013-02-23 06:50:00,
2013-02-23 01:00:00,21.3,14.3,29.95,West,279,1.0,1.0,74,0.00,,,0.00,Wunderground v.1.15,2013-02-23 07:00:00,
2013-02-23 01:10:00,21.3,14.3,29.95,WNW,286,0.0,8.0,74,0.00,,,0.00,Wunderground v.1.15,2013-02-23 07:10:00,
2013-02-23 01:20:00,21.1,14.4,29.95,West,271,0.0,8.0,75,0.00,,,0.00,Wunderground v.1.15,2013-02-23 07:20:00,
2013-02-23 01:30:00,21.1,14.4,29.95,West,260,1.0,1.0,75,0.00,,,0.00,Wunderground v.1.15,2013-02-23 07:30:00,
2013-02-23 01:40:00,21.1,14.4,29.95,WNW,297,2.0,2.0,75,0.00,,,0.00,Wunderground v.1.15,2013-02-23 07:40:00,
2013-02-23 01:50:00,21.0,14.3,29.95,NW,309,1.0,8.0,75,0.00,,,0.00,Wunderground v.1.15,2013-02-23 07:50:00,
2013-02-23 02:00:00,21.0,14.3,29.95,West,281,2.0,2.0,75,0.00,,,0.00,Wunderground v.1.15,2013-02-23 08:00:00,
2013-02-23 02:10:00,20.8,14.1,29.95,West,279,1.0,1.0,75,0.00,,,0.00,Wunderground v.1.15,2013-02-23 08:10:00,
2013-02-23 02:20:00,20.8,14.1,29.95,NNW,331,2.0,8.0,75,0.00,,,0.00,Wunderground v.1.15,2013-02-23 08:20:00,
2013-02-23 02:30:00,20.6,14.2,29.95,West,281,2.0,8.0,76,0.00,,,0.00,Wunderground v.1.15,2013-02-23 08:30:00,
2013-02-23 02:40:00,20.5,14.1,29.95,West,281,1.0,8.0,76,0.00,,,0.00,Wunderground v.1.15,2013-02-23 08:40:00,
2013-02-23 02:50:00,20.5,14.1,29.95,WNW,302,1.0,1.0,76,0.00,,,0.00,Wunderground v.1.15,2013-02-23 08:50:00,
2013-02-23 03:00:00,20.3,13.9,29.95,West,269,1.0,1.0,76,0.00,,,0.00,Wunderground v.1.15,2013-02-23 09:00:00,
2013-02-23 03:10:00,20.2,14.1,29.95,West,279,0.0,8.0,77,0.00,,,0.00,Wunderground v.1.15,2013-02-23 09:10:00,
2013-02-23 03:20:00,20.0,13.9,29.94,WSW,241,0.0,8.0,77,0.00,,,0.00,Wunderground v.1.15,2013-02-23 09:20:00,
2013-02-23 03:30:00,20.0,13.9,29.93,WSW,258,1.0,8.0,77,0.00,,,0.00,Wunderground v.1.15,2013-02-23 09:30:00,
2013-02-23 03:40:00,19.9,14.1,29.93,West,278,1.0,1.0,78,0.00,,,0.00,Wunderground v.1.15,2013-02-23 09:40:00,
2013-02-23 03:50:00,19.9,14.1,29.93,West,267,0.0,8.0,78,0.00,,,0.00,Wunderground v.1.15,2013-02-23 09:50:00,
2013-02-23 04:00:00,19.7,14.0,29.93,West,271,0.0,8.0,78,0.00,,,0.00,Wunderground v.1.15,2013-02-23 10:00:00,
2013-02-23 04:10:00,19.5,13.8,29.93,West,271,0.0,8.0,78,0.00,,,0.00,Wunderground v.1.15,2013-02-23 10:10:00,
2013-02-23 04:20:00,19.2,13.8,29.93,West,271,0.0,8.0,79,0.00,,,0.00,Wunderground v.1.15,2013-02-23 10:20:00,
2013-02-23 04:30:00,18.8,13.4,29.93,West,271,0.0,8.0,79,0.00,,,0.00,Wunderground v.1.15,2013-02-23 10:30:00,
2013-02-23 04:40:00,18.4,13.0,29.93,West,270,0.0,8.0,79,0.00,,,0.00,Wunderground v.1.15,2013-02-23 10:40:00,
2013-02-23 04:50:00,18.1,12.7,29.93,West,265,0.0,8.0,79,0.00,,,0.00,Wunderground v.1.15,2013-02-23 10:50:00,
2013-02-23 05:00:00,17.8,12.7,29.94,West,263,0.0,8.0,80,0.00,,,0.00,Wunderground v.1.15,2013-02-23 11:00:00,
2013-02-23 05:10:00,17.5,12.4,29.94,West,263,0.0,8.0,80,0.00,,,0.00,Wunderground v.1.15,2013-02-23 11:10:00,
2013-02-23 05:20:00,17.3,12.2,29.95,West,263,0.0,8.0,80,0.00,,,0.00,Wunderground v.1.15,2013-02-23 11:20:00,
2013-02-23 05:30:00,17.0,11.9,29.95,West,261,0.0,8.0,80,0.00,,,0.00,Wunderground v.1.15,2013-02-23 11:30:00,
2013-02-23 05:40:00,16.7,11.6,29.95,SW,232,0.0,8.0,80,0.00,,,0.00,Wunderground v.1.15,2013-02-23 11:40:00,
2013-02-23 05:50:00,16.5,11.4,29.95,WSW,244,0.0,8.0,80,0.00,,,0.00,Wunderground v.1.15,2013-02-23 11:50:00,
2013-02-23 06:00:00,16.2,11.1,29.95,WSW,244,0.0,8.0,80,0.00,,,0.00,Wunderground v.1.15,2013-02-23 12:00:00,
2013-02-23 06:10:00,15.9,11.1,29.95,SW,232,0.0,8.0,81,0.00,,,0.00,Wunderground v.1.15,2013-02-23 12:10:00,
2013-02-23 06:20:00,15.4,10.6,29.94,West,274,0.0,8.0,81,0.00,,,0.00,Wunderground v.1.15,2013-02-23 12:20:00,
2013-02-23 06:30:00,15.1,10.3,29.94,West,273,0.0,8.0,81,0.00,,,0.00,Wunderground v.1.15,2013-02-23 12:30:00,
2013-02-23 06:40:00,14.9,10.1,29.94,West,267,0.0,8.0,81,0.00,,,0.00,Wunderground v.1.15,2013-02-23 12:40:00,
2013-02-23 06:50:00,14.6,9.8,29.95,West,267,0.0,8.0,81,0.00,,,0.00,Wunderground v.1.15,2013-02-23 12:50:00,
2013-02-23 07:00:00,14.4,9.6,29.94,West,267,0.0,8.0,81,0.00,,,0.00,Wunderground v.1.15,2013-02-23 13:00:00,
2013-02-23 07:10:00,14.1,9.3,29.94,West,267,0.0,8.0,81,0.00,,,0.00,Wunderground v.1.15,2013-02-23 13:10:00,
2013-02-23 07:20:00,14.0,9.5,29.94,West,267,0.0,8.0,82,0.00,,,0.00,Wunderground v.1.15,2013-02-23 13:20:00,
2013-02-23 07:30:00,13.8,9.3,29.94,West,267,0.0,8.0,82,0.00,,,0.00,Wunderground v.1.15,2013-02-23 13:30:00,
2013-02-23 07:40:00,13.8,9.3,29.94,West,267,0.0,8.0,82,0.00,,,0.00,Wunderground v.1.15,2013-02-23 13:40:00,
2013-02-23 07:50:00,13.8,9.3,29.94,West,267,0.0,8.0,82,0.00,,,0.00,Wunderground v.1.15,2013-02-23 13:50:00,
2013-02-23 08:00:00,13.8,9.6,29.94,West,265,0.0,8.0,83,0.00,,,0.00,Wunderground v.1.15,2013-02-23 14:00:00,
2013-02-23 08:10:00,14.0,9.8,29.94,West,263,0.0,8.0,83,0.00,,,0.00,Wunderground v.1.15,2013-02-23 14:10:00,
2013-02-23 08:20:00,14.1,9.9,29.94,WSW,257,0.0,8.0,83,0.00,,,0.00,Wunderground v.1.15,2013-02-23 14:20:00,
2013-02-23 08:30:00,14.8,10.6,29.94,SSW,211,0.0,8.0,83,0.00,,,0.00,Wunderground v.1.15,2013-02-23 14:30:00,
2013-02-23 08:40:00,15.4,10.9,29.94,WSW,244,0.0,8.0,82,0.00,,,0.00,Wunderground v.1.15,2013-02-23 14:40:00,
2013-02-23 08:50:00,15.9,11.1,29.94,WSW,244,0.0,8.0,81,0.00,,,0.00,Wunderground v.1.15,2013-02-23 14:50:00,
2013-02-23 09:00:00,15.9,10.8,29.95,SSW,213,0.0,8.0,80,0.00,,,0.00,Wunderground v.1.15,2013-02-23 15:00:00,
2013-02-23 09:10:00,15.9,10.8,29.95,SW,214,1.0,8.0,80,0.00,,,0.00,Wunderground v.1.15,2013-02-23 15:10:00,
2013-02-23 09:20:00,16.5,11.1,29.95,South,186,1.0,8.0,79,0.00,,,0.00,Wunderground v.1.15,2013-02-23 15:20:00,
2013-02-23 09:30:00,17.0,11.0,29.95,WSW,243,1.0,8.0,77,0.00,,,0.00,Wunderground v.1.15,2013-02-23 15:30:00,
2013-02-23 09:40:00,18.0,12.0,29.95,SW,223,1.0,1.0,77,0.00,,,0.00,Wunderground v.1.15,2013-02-23 15:40:00,
2013-02-23 09:50:00,19.1,12.5,29.95,WSW,238,0.0,8.0,75,0.00,,,0.00,Wunderground v.1.15,2013-02-23 15:50:00,
2013-02-23 10:00:00,19.9,12.6,29.94,SW,236,0.0,8.0,73,0.00,,,0.00,Wunderground v.1.15,2013-02-23 16:00:00,
2013-02-23 10:10:00,20.8,12.6,29.94,SW,236,1.0,1.0,70,0.00,,,0.00,Wunderground v.1.15,2013-02-23 16:10:00,
2013-02-23 10:20:00,21.4,13.1,29.94,WNW,292,1.0,8.0,70,0.00,,,0.00,Wunderground v.1.15,2013-02-23 16:20:00,
2013-02-23 10:30:00,21.6,13.0,29.94,SW,223,2.0,8.0,69,0.00,,,0.00,Wunderground v.1.15,2013-02-23 16:30:00,
2013-02-23 10:40:00,21.8,12.9,29.94,WNW,285,1.0,8.0,68,0.00,,,0.00,Wunderground v.1.15,2013-02-23 16:40:00,
2013-02-23 10:50:00,22.2,13.2,29.94,SW,217,1.0,1.0,68,0.00,,,0.00,Wunderground v.1.15,2013-02-23 16:50:00,
2013-02-23 11:00:00,22.7,13.0,29.94,WNW,295,1.0,8.0,66,0.00,,,0.00,Wunderground v.1.15,2013-02-23 17:00:00,
2013-02-23 11:10:00,23.6,13.9,29.94,WSW,238,1.0,1.0,66,0.00,,,0.00,Wunderground v.1.15,2013-02-23 17:10:00,
2013-02-23 11:20:00,24.5,14.1,29.93,SSW,213,1.0,8.0,64,0.00,,,0.00,Wunderground v.1.15,2013-02-23 17:20:00,
2013-02-23 11:30:00,25.1,14.6,29.93,West,260,1.0,8.0,64,0.00,,,0.00,Wunderground v.1.15,2013-02-23 17:30:00,
2013-02-23 11:40:00,25.0,13.8,29.93,West,272,1.0,8.0,62,0.00,,,0.00,Wunderground v.1.15,2013-02-23 17:40:00,
2013-02-23 11:50:00,26.0,15.1,29.93,West,278,1.0,8.0,63,0.00,,,0.00,Wunderground v.1.15,2013-02-23 17:50:00,
2013-02-23 12:00:00,26.4,14.4,29.92,West,262,1.0,1.0,60,0.00,,,0.00,Wunderground v.1.15,2013-02-23 18:00:00,
2013-02-23 12:10:00,26.9,15.2,29.92,WNW,290,1.0,1.0,61,0.00,,,0.00,Wunderground v.1.15,2013-02-23 18:10:00,
2013-02-23 12:20:00,27.6,15.5,29.92,WSW,240,1.0,1.0,60,0.00,,,0.01,Wunderground v.1.15,2013-02-23 18:20:00,
2013-02-23 12:30:00,28.2,16.1,29.92,WSW,252,1.0,1.0,60,0.00,,,0.01,Wunderground v.1.15,2013-02-23 18:30:00,
2013-02-23 12:40:00,28.5,16.0,29.92,SW,219,1.0,8.0,59,0.00,,,0.01,Wunderground v.1.15,2013-02-23 18:40:00,
2013-02-23 12:50:00,29.0,16.4,29.91,WSW,248,1.0,1.0,59,0.00,,,0.01,Wunderground v.1.15,2013-02-23 18:50:00,
2013-02-23 13:00:00,29.4,16.4,29.90,SSW,204,2.0,8.0,58,0.00,,,0.01,Wunderground v.1.15,2013-02-23 19:00:00,
2013-02-23 13:10:00,29.4,16.4,29.90,West,279,1.0,1.0,58,0.00,,,0.01,Wunderground v.1.15,2013-02-23 19:10:00,
2013-02-23 13:20:00,30.3,16.9,29.90,South,186,1.0,1.0,57,0.00,,,0.01,Wunderground v.1.15,2013-02-23 19:20:00,
2013-02-23 13:30:00,29.5,16.5,29.90,SSW,212,1.0,1.0,58,0.00,,,0.01,Wunderground v.1.15,2013-02-23 19:30:00,
2013-02-23 13:40:00,30.6,17.2,29.90,WSW,248,1.0,1.0,57,0.00,,,0.01,Wunderground v.1.15,2013-02-23 19:40:00,
2013-02-23 13:50:00,30.1,16.7,29.90,SW,233,1.0,8.0,57,0.00,,,0.01,Wunderground v.1.15,2013-02-23 19:50:00,
2013-02-23 14:00:00,31.2,18.1,29.89,WNW,290,1.0,8.0,58,0.00,,,0.02,Wunderground v.1.15,2013-02-23 20:00:00,
2013-02-23 14:10:00,30.4,17.0,29.89,SSW,208,2.0,2.0,57,0.00,,,0.02,Wunderground v.1.15,2013-02-23 20:10:00,
2013-02-23 14:20:00,30.6,17.2,29.89,WSW,250,1.0,1.0,57,0.00,,,0.03,Wunderground v.1.15,2013-02-23 20:20:00,
2013-02-23 14:30:00,31.6,18.1,29.89,SW,219,1.0,1.0,57,0.10,,,0.05,Wunderground v.1.15,2013-02-23 20:30:00,
2013-02-23 14:40:00,31.9,18.4,29.89,SSW,209,1.0,1.0,57,0.05,,,0.06,Wunderground v.1.15,2013-02-23 20:40:00,
2013-02-23 14:50:00,32.4,18.4,29.89,WSW,243,1.0,8.0,56,0.05,,,0.06,Wunderground v.1.15,2013-02-23 20:50:00,
2013-02-23 15:00:00,32.5,18.1,29.89,SSW,199,2.0,2.0,55,0.04,,,0.07,Wunderground v.1.15,2013-02-23 21:00:00,
2013-02-23 15:10:00,32.8,18.8,29.89,SW,231,0.0,8.0,56,0.04,,,0.07,Wunderground v.1.15,2013-02-23 21:10:00,
2013-02-23 15:20:00,32.7,19.1,29.89,SW,225,1.0,1.0,57,0.00,,,0.08,Wunderground v.1.15,2013-02-23 21:20:00,
2013-02-23 15:30:00,32.1,18.6,29.89,West,271,2.0,2.0,57,0.00,,,0.08,Wunderground v.1.15,2013-02-23 21:30:00,
2013-02-23 15:40:00,32.1,18.6,29.89,SSW,210,1.0,1.0,57,0.00,,,0.08,Wunderground v.1.15,2013-02-23 21:40:00,
2013-02-23 15:50:00,32.2,18.7,29.88,SW,236,1.0,8.0,57,0.00,,,0.09,Wunderground v.1.15,2013-02-23 21:50:00,
2013-02-23 16:00:00,32.4,18.4,29.89,SW,236,1.0,8.0,56,0.00,,,0.09,Wunderground v.1.15,2013-02-23 22:00:00,
2013-02-23 16:10:00,32.1,17.7,29.89,South,191,2.0,2.0,55,0.00,,,0.09,Wunderground v.1.15,2013-02-23 22:10:00,
2013-02-23 16:20:00,32.2,18.2,29.88,SW,236,0.0,8.0,56,0.00,,,0.10,Wunderground v.1.15,2013-02-23 22:20:00,
2013-02-23 16:30:00,32.2,18.7,29.88,South,174,0.0,8.0,57,0.00,,,0.10,Wunderground v.1.15,2013-02-23 22:30:00,
2013-02-23 16:40:00,32.1,18.6,29.88,SW,231,1.0,1.0,57,0.00,,,0.10,Wunderground v.1.15,2013-02-23 22:40:00,
2013-02-23 16:50:00,31.8,18.7,29.87,SW,219,1.0,1.0,58,0.00,,,0.10,Wunderground v.1.15,2013-02-23 22:50:00,
2013-02-23 17:00:00,31.5,18.4,29.87,SSW,213,1.0,1.0,58,0.00,,,0.10,Wunderground v.1.15,2013-02-23 23:00:00,
2013-02-23 17:10:00,31.6,18.9,29.87,SW,226,0.0,8.0,59,0.00,,,0.11,Wunderground v.1.15,2013-02-23 23:10:00,
2013-02-23 17:20:00,31.6,18.9,29.87,SW,222,1.0,1.0,59,0.00,,,0.11,Wunderground v.1.15,2013-02-23 23:20:00,
2013-02-23 17:30:00,31.6,18.9,29.87,SW,224,0.0,8.0,59,0.00,,,0.11,Wunderground v.1.15,2013-02-23 23:30:00,
2013-02-23 17:40:00,31.3,18.6,29.87,SW,230,0.0,8.0,59,0.00,,,0.11,Wunderground v.1.15,2013-02-23 23:40:00,
2013-02-23 17:50:00,31.0,18.7,29.88,SW,230,0.0,8.0,60,0.00,,,0.11,Wunderground v.1.15,2013-02-23 23:50:00,
2013-02-23 18:00:00,30.6,18.3,29.88,SW,230,0.0,8.0,60,0.00,,,0.11,Wunderground v.1.15,2013-02-24 00:00:00,
2013-02-23 18:10:00,30.3,18.1,29.88,SW,230,0.0,8.0,60,0.00,,,0.11,Wunderground v.1.15,2013-02-24 00:10:00,
2013-02-23 18:20:00,29.7,17.9,29.88,SW,230,0.0,8.0,61,0.00,,,0.11,Wunderground v.1.15,2013-02-24 00:20:00,
2013-02-23 18:30:00,29.3,17.9,29.88,SW,230,0.0,8.0,62,0.00,,,0.11,Wunderground v.1.15,2013-02-24 00:30:00,
2013-02-23 18:40:00,28.8,17.8,29.88,SW,230,0.0,8.0,63,0.00,,,0.11,Wunderground v.1.15,2013-02-24 00:40:00,
2013-02-23 18:50:00,28.4,17.8,29.88,SW,230,0.0,8.0,64,0.00,,,0.11,Wunderground v.1.15,2013-02-24 00:50:00,
2013-02-23 19:00:00,28.1,17.5,29.88,SW,230,0.0,8.0,64,0.00,,,0.11,Wunderground v.1.15,2013-02-24 01:00:00,
2013-02-23 19:10:00,27.6,17.4,29.88,SW,230,0.0,8.0,65,0.00,,,0.11,Wunderground v.1.15,2013-02-24 01:10:00,
2013-02-23 19:20:00,27.3,17.4,29.87,SW,230,0.0,8.0,66,0.00,,,0.11,Wunderground v.1.15,2013-02-24 01:20:00,
2013-02-23 19:30:00,27.0,17.5,29.87,SW,230,0.0,8.0,67,0.00,,,0.11,Wunderground v.1.15,2013-02-24 01:30:00,
2013-02-23 19:40:00,26.7,17.2,29.87,SW,230,0.0,8.0,67,0.00,,,0.11,Wunderground v.1.15,2013-02-24 01:40:00,
2013-02-23 19:50:00,26.6,17.1,29.88,SW,230,0.0,8.0,67,0.00,,,0.11,Wunderground v.1.15,2013-02-24 01:50:00,
2013-02-23 20:00:00,26.3,17.2,29.88,SW,230,0.0,8.0,68,0.00,,,0.11,Wunderground v.1.15,2013-02-24 02:00:00,
2013-02-23 20:10:00,26.0,16.9,29.88,SW,230,0.0,8.0,68,0.00,,,0.11,Wunderground v.1.15,2013-02-24 02:10:00,
2013-02-23 20:20:00,25.8,17.0,29.88,SW,230,0.0,8.0,69,0.00,,,0.11,Wunderground v.1.15,2013-02-24 02:20:00,
2013-02-23 20:30:00,25.6,16.8,29.88,SW,230,0.0,8.0,69,0.00,,,0.11,Wunderground v.1.15,2013-02-24 02:30:00,
2013-02-23 20:40:00,25.4,17.0,29.88,SW,230,0.0,8.0,70,0.00,,,0.11,Wunderground v.1.15,2013-02-24 02:40:00,
2013-02-23 20:50:00,25.1,16.7,29.88,SW,230,0.0,8.0,70,0.00,,,0.11,Wunderground v.1.15,2013-02-24 02:50:00,
2013-02-23 21:00:00,25.0,16.6,29.88,SW,230,0.0,8.0,70,0.00,,,0.11,Wunderground v.1.15,2013-02-24 03:00:00,
2013-02-23 21:10:00,24.7,16.3,29.88,SW,230,0.0,8.0,70,0.00,,,0.11,Wunderground v.1.15,2013-02-24 03:10:00,
2013-02-23 21:20:00,24.5,16.4,29.89,SW,230,0.0,8.0,71,0.00,,,0.11,Wunderground v.1.15,2013-02-24 03:20:00,
2013-02-23 21:30:00,24.4,16.3,29.90,SW,230,0.0,8.0,71,0.00,,,0.11,Wunderground v.1.15,2013-02-24 03:30:00,
2013-02-23 21:40:00,24.1,16.1,29.90,SW,230,0.0,8.0,71,0.00,,,0.11,Wunderground v.1.15,2013-02-24 03:40:00,
2013-02-23 21:50:00,23.8,16.1,29.90,SW,230,0.0,8.0,72,0.00,,,0.11,Wunderground v.1.15,2013-02-24 03:50:00,
2013-02-23 22:00:00,23.6,15.9,29.91,SW,230,0.0,8.0,72,0.00,,,0.11,Wunderground v.1.15,2013-02-24 04:00:00,
2013-02-23 22:10:00,23.3,15.6,29.91,SW,230,0.0,8.0,72,0.00,,,0.11,Wunderground v.1.15,2013-02-24 04:10:00,
2013-02-23 22:20:00,23.2,15.8,29.91,SW,230,0.0,8.0,73,0.00,,,0.11,Wunderground v.1.15,2013-02-24 04:20:00,
2013-02-23 22:30:00,22.9,15.5,29.91,SW,230,0.0,8.0,73,0.00,,,0.11,Wunderground v.1.15,2013-02-24 04:30:00,
2013-02-23 22:40:00,22.7,15.3,29.91,SW,230,0.0,8.0,73,0.00,,,0.11,Wunderground v.1.15,2013-02-24 04:40:00,
2013-02-23 22:50:00,22.5,15.1,29.91,SW,230,0.0,8.0,73,0.00,,,0.11,Wunderground v.1.15,2013-02-24 04:50:00,
2013-02-23 23:00:00,22.4,15.1,29.90,SW,230,0.0,8.0,73,0.00,,,0.11,Wunderground v.1.15,2013-02-24 05:00:00,
2013-02-23 23:10:00,22.1,15.1,29.90,SW,230,0.0,8.0,74,0.00,,,0.11,Wunderground v.1.15,2013-02-24 05:10:00,
2013-02-23 23:20:00,21.9,14.9,29.90,SW,230,0.0,8.0,74,0.00,,,0.11,Wunderground v.1.15,2013-02-24 05:20:00,
2013-02-23 23:30:00,21.6,14.6,29.90,SW,230,0.0,8.0,74,0.00,,,0.11,Wunderground v.1.15,2013-02-24 05:30:00,
2013-02-23 23:40:00,21.4,14.4,29.90,SW,230,0.0,8.0,74,0.00,,,0.11,Wunderground v.1.15,2013-02-24 05:40:00,
2013-02-23 23:50:00,21.3,14.3,29.90,SW,230,0.0,8.0,74,0.00,,,0.11,Wunderground v.1.15,2013-02-24 05:50:00,